createdAt,value
2023-05-05T00:06:07.373Z,332.7725752508361
2023-05-05T00:18:11.654Z,339.3010033444816
2023-05-05T00:24:32.705Z,325.86622073578593
2023-05-05T00:33:51.291Z,331.30434782608694
2023-05-05T00:55:40.289Z,330.18060200668896
2023-05-05T01:02:02.742Z,302.7658862876254
2023-05-05T01:08:25.268Z,304.17391304347825
2023-05-05T01:14:47.515Z,311.0267558528428
2023-05-05T01:21:08.191Z,319.18729096989966
2023-05-05T01:27:29.006Z,317.5785953177257
2023-05-05T01:33:49.137Z,332.24080267558526
2023-05-05T01:51:14.779Z,303.6923076923077
2023-05-05T02:04:25.783Z,305.5953177257525
2023-05-05T02:10:48.815Z,315.27759197324417
2023-05-05T02:23:12.069Z,301.5785953177257
2023-05-05T02:36:30.613Z,296.3444816053512
2023-05-05T02:42:51.127Z,300.2040133779264
2023-05-05T02:49:12.081Z,313.2274247491639
2023-05-05T02:57:26.019Z,312.83946488294316
2023-05-05T03:03:49.317Z,312.2173913043478
2023-05-05T03:10:11.664Z,307.97658862876256
2023-05-05T03:16:31.645Z,306.438127090301
2023-05-05T03:22:52.517Z,325.4113712374582
2023-05-05T03:29:14.230Z,314.13377926421407
2023-05-05T03:35:33.642Z,318.943143812709
2023-05-05T03:41:54.767Z,323.16722408026754
2023-05-05T03:52:29.454Z,327.9799331103679
2023-05-05T03:58:51.970Z,329.04013377926424
2023-05-05T04:05:13.185Z,336.2608695652174
2023-05-05T04:11:43.665Z,346.96989966555185
2023-05-05T04:18:06.167Z,339.04347826086956
2023-05-05T04:24:29.466Z,344.13377926421407
2023-05-05T04:30:52.154Z,339.933110367893
2023-05-05T04:37:15.424Z,364.0200668896321
2023-05-05T04:43:37.909Z,354.2040133779264
2023-05-05T04:53:11.376Z,356.8494983277592
2023-05-05T04:59:37.146Z,370.98327759197326
2023-05-05T05:06:10.093Z,361.10033444816054
2023-05-05T05:17:34.559Z,353.8595317725752
2023-05-05T05:24:21.144Z,376.40802675585286
2023-05-05T05:30:42.936Z,368.7725752508361
2023-05-05T05:37:04.538Z,380.68896321070235
2023-05-05T05:43:26.149Z,378.04347826086956
2023-05-05T05:49:47.650Z,391.4347826086956
2023-05-05T05:56:09.789Z,380.97658862876256
2023-05-05T06:02:31.766Z,390.4581939799331
2023-05-05T06:10:26.611Z,374.96655518394647
2023-05-05T06:18:15.392Z,371.4180602006689
2023-05-05T06:24:37.595Z,385.6923076923077
2023-05-05T06:31:46.401Z,395.01672240802674
2023-05-05T06:39:19.942Z,387.943143812709
2023-05-05T06:45:43.875Z,398.81270903010034
2023-05-05T06:52:06.018Z,388.87290969899664
2023-05-05T06:58:28.579Z,390.10367892976586
2023-05-05T07:04:59.098Z,383.0602006688963
2023-05-05T07:11:21.297Z,386.8628762541806
2023-05-05T07:17:43.733Z,406.7056856187291
2023-05-05T07:24:05.876Z,388.27759197324417
2023-05-05T07:30:28.220Z,408.2107023411371
2023-05-05T07:36:49.891Z,397.60200668896323
2023-05-05T07:49:02.973Z,424.9464882943144
2023-05-05T07:55:24.433Z,438.16053511705684
2023-05-05T08:01:46.041Z,442.47491638795987
2023-05-05T08:08:07.376Z,444.1638795986622
2023-05-05T08:14:28.382Z,460.3444816053512
2023-05-05T08:20:49.696Z,465.6521739130435
2023-05-05T08:27:11.741Z,475.52508361204013
2023-05-05T08:33:33.019Z,461.17725752508363
2023-05-05T08:39:53.754Z,464.3076923076923
2023-05-05T08:53:47.255Z,477.505016722408
2023-05-05T09:00:09.442Z,470.96655518394647
2023-05-05T09:07:22.372Z,485.3444816053512
2023-05-05T09:14:50.487Z,472.89297658862876
2023-05-05T09:21:12.291Z,485.4782608695652
2023-05-05T09:27:33.484Z,500.89966555183946
2023-05-05T09:33:58.532Z,522.3678929765887
2023-05-05T09:42:34.521Z,549.4046822742475
2023-05-05T09:48:57.102Z,577.989966555184
2023-05-05T09:55:19.993Z,587.1872909698997
2023-05-05T10:01:42.678Z,575.4581939799331
2023-05-05T10:08:05.620Z,508.82608695652175
2023-05-05T10:21:44.504Z,503.8628762541806
2023-05-05T10:32:40.654Z,479.4314381270903
2023-05-05T10:39:12.776Z,443.59866220735785
2023-05-05T10:45:35.705Z,462.32441471571906
2023-05-05T10:51:58.182Z,467.15384615384613
2023-05-05T10:58:21.068Z,460.7725752508361
2023-05-05T11:04:43.982Z,452.5551839464883
2023-05-05T11:11:06.803Z,465.8494983277592
2023-05-05T11:26:14.666Z,497.0267558528428
2023-05-05T11:35:15.830Z,511.90301003344484
2023-05-05T11:41:38.691Z,509.4916387959866
2023-05-05T11:51:28.512Z,536.6688963210702
2023-05-05T11:57:52.555Z,554.7792642140469
2023-05-05T12:04:15.468Z,574.8327759197324
2023-05-05T12:28:34.344Z,589.4983277591973
2023-05-05T12:34:57.155Z,640.6588628762541
2023-05-05T12:41:21.150Z,642.7792642140469
2023-05-05T12:47:44.524Z,612.0702341137123
2023-05-05T12:54:06.662Z,616.3478260869565
2023-05-05T13:03:16.080Z,643.6789297658863
2023-05-05T13:13:15.917Z,641.7725752508361
2023-05-05T13:19:40.026Z,642.5451505016722
2023-05-05T13:29:02.214Z,653.3010033444816
2023-05-05T13:41:07.875Z,672.2107023411371
2023-05-05T13:47:31.352Z,666.4949832775919
2023-05-05T13:53:54.540Z,661.6120401337793
2023-05-05T14:07:48.365Z,675.1939799331103
2023-05-05T14:14:13.691Z,656.6555183946489
2023-05-05T14:20:36.624Z,697.5016722408027
2023-05-05T14:28:03.922Z,688.7357859531772
2023-05-05T14:34:30.420Z,692.5217391304348
2023-05-05T14:44:56.688Z,697.8628762541806
2023-05-05T14:51:20.303Z,707.2040133779265
2023-05-05T15:05:18.552Z,682.5317725752508
2023-05-05T15:11:40.803Z,643.3311036789298
2023-05-05T15:18:55.335Z,621.0769230769231
2023-05-05T15:25:17.947Z,597.7692307692307
2023-05-05T15:31:40.233Z,583.5852842809364
2023-05-05T15:38:02.799Z,595.9096989966555
2023-05-05T15:44:24.975Z,584.7391304347826
2023-05-05T15:50:47.155Z,537.6220735785953
2023-05-05T15:57:09.859Z,532.8896321070234
2023-05-05T16:08:05.947Z,550.5083612040133
2023-05-05T16:14:28.372Z,536.9130434782609
2023-05-05T16:22:12.890Z,547.4615384615385
2023-05-05T16:28:35.182Z,547.7792642140469
2023-05-05T16:34:57.715Z,539.7257525083612
2023-05-05T16:41:20.031Z,632.3177257525084
2023-05-05T16:47:39.323Z,646.2040133779265
2023-05-05T16:58:31.597Z,702.9331103678929
2023-05-05T17:04:50.641Z,785.4949832775919
2023-05-05T17:11:11.499Z,844.0066889632106
2023-05-05T17:17:31.587Z,939.8428093645485
2023-05-05T17:23:53.579Z,1005.7658862876254
2023-05-05T17:30:14.723Z,1061.3946488294314
2023-05-05T17:36:36.302Z,1108.408026755853
2023-05-05T17:42:57.905Z,1135.190635451505
2023-05-05T17:51:16.329Z,1139.257525083612
2023-05-05T17:57:41.769Z,1121.7190635451504
2023-05-05T18:07:22.679Z,1164.200668896321
2023-05-05T18:13:43.105Z,1148.9063545150502
2023-05-05T18:21:41.347Z,882.1204013377926
2023-05-05T18:28:00.389Z,621.6488294314381
2023-05-05T18:35:44.108Z,776.2107023411371
2023-05-05T18:44:56.016Z,927.5652173913044
2023-05-05T18:52:02.260Z,936.418060200669
2023-05-05T18:58:21.684Z,1009.7023411371238
2023-05-05T19:05:10.564Z,1137.23745819398
2023-05-05T19:11:30.288Z,1280.809364548495
2023-05-05T19:28:39.070Z,1083.7357859531774
2023-05-05T19:42:18.814Z,900.2775919732442
2023-05-05T19:50:55.421Z,723.2976588628762
2023-05-05T19:57:14.834Z,764.3311036789298
2023-05-05T20:03:33.802Z,718.8127090301003
2023-05-05T20:09:53.002Z,569.1571906354515
2023-05-05T20:16:12.149Z,557.6655518394649
2023-05-05T20:27:35.973Z,553.4448160535117
2023-05-05T20:33:56.121Z,527.4581939799331
2023-05-05T20:40:15.121Z,478.0769230769231
2023-05-05T20:50:51.482Z,545.2709030100334
2023-05-05T21:04:24.110Z,535.6387959866221
2023-05-05T21:10:43.113Z,558.3979933110368
2023-05-05T21:18:12.257Z,582.257525083612
2023-05-05T21:28:07.421Z,597.0
2023-05-05T21:34:26.590Z,597.0401337792642
2023-05-05T21:45:16.720Z,610.133779264214
2023-05-05T22:00:17.048Z,610.0836120401337
2023-05-05T22:06:35.346Z,620.7190635451504
2023-05-05T22:14:43.153Z,676.0969899665552
2023-05-05T22:21:01.968Z,686.0769230769231
2023-05-05T22:27:20.299Z,684.0200668896321
2023-05-05T22:34:05.405Z,724.8026755852843
2023-05-05T22:40:42.206Z,744.2809364548496
2023-05-05T22:47:01.518Z,739.571906354515
2023-05-05T22:53:21.869Z,788.9431438127091
2023-05-05T23:04:18.441Z,831.9632107023411
2023-05-05T23:10:37.936Z,816.7123745819398
2023-05-05T23:18:42.059Z,799.2274247491639
2023-05-05T23:34:48.199Z,805.561872909699
2023-05-05T23:41:07.912Z,819.4080267558528
2023-05-05T23:47:29.890Z,853.886287625418
2023-05-05T23:53:48.640Z,888.9565217391304
